Overview Statistics Trail Chart Weather Telemetry Raw packets
 

This is the latest recevied weather packets stored in our database for station/object LKVO. If no packets are shown the sender has not sent any weather packets the latest 10 day(s).

<< 1 2 3 >>
Time Temp. Humidity Pressure Rain* Wind** Luminosity Snow
1788419050 17.22° C 72% 1021 hPa - - - -
1788417183 16.11° C 82% 1021 hPa - - - -
1788354249 22.78° C 46% 1020 hPa - - - -
1788350711 22.22° C 49% 1020 hPa - - - -
1788346863 21.11° C 56% 1021 hPa - - - -
1788343511 21.11° C 56% 1021 hPa - - - -
1788339963 20° C 64% 1021 hPa - - - -
1788336249 18.89° C 72% 1022 hPa - - - -
1788332703 17.22° C 72% 1022 hPa - - - -
1788330783 16.11° C 77% 1021 hPa - - - -
1788267731 22.22° C 49% 1020 hPa - - - -
1788264310 22.22° C 46% 1020 hPa - - - -
1788260583 21.11° C 52% 1021 hPa - - - -
1788257111 20° C 56% 1020 hPa - - - -
1788253332 20° C 56% 1020 hPa - - - -
1788249963 18.89° C 63% 1020 hPa - - - -
1788246311 17.78° C 72% 1020 hPa - - - -
1788244263 17.22° C 77% 1019 hPa - - - -
1788184872 23.89° C 47% 1015 hPa - - - -
1788181563 23.89° C 50% 1015 hPa - - - -
1788177848 22.22° C 60% 1015 hPa - - - -
1788174130 21.11° C 73% 1015 hPa - - - -
1788170703 20° C 82% 1015 hPa - - - -
1788167049 17.78° C 93% 1015 hPa - - - -
1787922250 27.78° C 48% 1013 hPa - - - -

* Rain since midnight (hover to see other rain measurements)
** Current wind speed in m/s (hover to see current wind gust speed)